Time;durP1;ratioP1;P1;durP2;ratioP2;P2;SDS_P1;SDS_P2;PMS_P1;PMS_P2;Temp;Humidity;BMP_temperature;BMP_pressure;BME280_temperature;BME280_humidity;BME280_pressure;Samples;Min_cycle;Max_cycle;Signal;HPM_P1;HPM_P2
2021/05/27 00:00:46;;;;;;;8.04;5.85;;;;;;;;;;365911;147;858643;-59
2021/05/27 00:01:48;;;;;;;7.12;5.69;;;;;;;;;;365198;146;857720;-59
2021/05/27 00:02:49;;;;;;;5.71;4.96;;;;;;;;;;365810;146;865730;-59
2021/05/27 00:03:51;;;;;;;6.66;5.74;;;;;;;;;;365991;147;859155;-59
2021/05/27 00:04:53;;;;;;;9.24;5.66;;;;;;;;;;364314;146;857531;-60
2021/05/27 00:05:54;;;;;;;10.03;5.69;;;;;;;;;;362352;147;857187;-60
2021/05/27 00:06:56;;;;;;;9.01;5.86;;;;;;;;;;361413;146;857377;-60
2021/05/27 00:07:58;;;;;;;8.01;6.21;;;;;;;;;;365445;146;865060;-60
2021/05/27 00:08:59;;;;;;;9.17;6.47;;;;;;;;;;365169;147;857356;-59
2021/05/27 00:10:02;;;;;;;7.04;6.16;;;;;;;;;;363119;146;857335;-59
2021/05/27 00:11:03;;;;;;;11.57;6.47;;;;;;;;;;365620;146;864831;-59
2021/05/27 00:12:05;;;;;;;7.40;6.20;;;;;;;;;;365259;147;857288;-60
2021/05/27 00:13:07;;;;;;;9.29;6.43;;;;;;;;;;363965;146;857293;-59
2021/05/27 00:14:09;;;;;;;9.42;7.25;;;;;;;;;;363943;148;857960;-59
2021/05/27 00:15:11;;;;;;;10.13;6.89;;;;;;;;;;364537;146;857729;-59
2021/05/27 00:16:12;;;;;;;10.93;7.05;;;;;;;;;;366008;146;859409;-59
2021/05/27 00:17:15;;;;;;;9.74;7.94;;;;;;;;;;365938;146;858831;-59
2021/05/27 00:18:16;;;;;;;9.37;7.92;;;;;;;;;;364850;146;857265;-59
2021/05/27 00:19:18;;;;;;;9.76;7.79;;;;;;;;;;366140;147;857259;-59
2021/05/27 00:20:20;;;;;;;9.93;7.95;;;;;;;;;;360702;147;857333;-60
2021/05/27 00:21:22;;;;;;;12.50;8.38;;;;;;;;;;364234;146;857695;-59
2021/05/27 00:22:24;;;;;;;10.99;8.44;;;;;;;;;;364332;147;865006;-59
2021/05/27 00:23:26;;;;;;;8.87;7.54;;;;;;;;;;365165;146;857174;-60
2021/05/27 00:24:29;;;;;;;9.73;7.51;;;;;;;;;;364876;145;865129;-60
2021/05/27 00:25:31;;;;;;;8.50;7.60;;;;;;;;;;365540;147;865004;-59
2021/05/27 00:26:33;;;;;;;11.68;7.53;;;;;;;;;;355810;150;857458;-60
2021/05/27 00:27:35;;;;;;;8.89;7.64;;;;;;;;;;365176;146;857429;-60
2021/05/27 00:28:37;;;;;;;9.56;7.69;;;;;;;;;;364580;146;859238;-60
2021/05/27 00:29:39;;;;;;;9.03;7.53;;;;;;;;;;365585;146;865952;-60
2021/05/27 00:30:41;;;;;;;10.97;7.29;;;;;;;;;;363698;147;866389;-59
2021/05/27 00:31:43;;;;;;;9.72;7.59;;;;;;;;;;364994;146;858750;-60
2021/05/27 00:32:45;;;;;;;14.22;8.41;;;;;;;;;;363142;146;857187;-60
2021/05/27 00:33:46;;;;;;;8.46;7.62;;;;;;;;;;361696;147;864922;-59
2021/05/27 00:34:48;;;;;;;12.89;8.90;;;;;;;;;;365333;146;857360;-58
2021/05/27 00:35:49;;;;;;;11.07;7.88;;;;;;;;;;362810;147;857364;-59
2021/05/27 00:36:51;;;;;;;9.82;8.39;;;;;;;;;;364327;146;857428;-58
2021/05/27 00:37:53;;;;;;;11.62;7.33;;;;;;;;;;352294;153;866794;-58
2021/05/27 00:38:54;;;;;;;17.71;8.49;;;;;;;;;;365273;147;858984;-58
2021/05/27 00:39:56;;;;;;;9.42;7.92;;;;;;;;;;365006;146;857523;-58
2021/05/27 00:40:58;;;;;;;12.79;8.23;;;;;;;;;;363022;146;860584;-58
2021/05/27 00:41:59;;;;;;;17.71;8.20;;;;;;;;;;359468;146;859172;-58
2021/05/27 00:43:01;;;;;;;10.32;8.09;;;;;;;;;;365242;146;859552;-58
2021/05/27 00:44:04;;;;;;;11.24;8.39;;;;;;;;;;364263;147;857889;-59
2021/05/27 00:45:10;;;;;;;12.22;7.91;;;;;;;;;;363354;146;864909;-60
2021/05/27 00:46:12;;;;;;;10.70;8.39;;;;;;;;;;364692;147;857239;-60
2021/05/27 00:47:14;;;;;;;9.62;8.04;;;;;;;;;;362534;147;859942;-60
2021/05/27 00:49:31;;;;;;;10.45;7.79;;;;;;;;;;351667;152;857832;-60
2021/05/27 00:50:33;;;;;;;9.97;8.06;;;;;;;;;;355343;146;857973;-61
2021/05/27 00:51:35;;;;;;;9.49;7.93;;;;;;;;;;362391;147;859209;-60
2021/05/27 00:52:36;;;;;;;10.65;7.84;;;;;;;;;;365865;147;866110;-60
2021/05/27 00:53:38;;;;;;;9.31;7.68;;;;;;;;;;364312;146;858822;-60
2021/05/27 00:54:39;;;;;;;10.02;7.56;;;;;;;;;;362989;146;858041;-61
2021/05/27 00:55:41;;;;;;;12.59;7.66;;;;;;;;;;364521;146;857320;-60
2021/05/27 00:56:43;;;;;;;8.75;7.38;;;;;;;;;;366680;146;857243;-60
2021/05/27 00:57:45;;;;;;;8.63;7.25;;;;;;;;;;364081;147;857179;-60
2021/05/27 00:58:46;;;;;;;12.08;7.40;;;;;;;;;;362755;146;857177;-60
2021/05/27 00:59:48;;;;;;;8.30;6.82;;;;;;;;;;363232;147;857448;-61
2021/05/27 01:00:51;;;;;;;7.79;7.00;;;;;;;;;;360144;146;857317;-60
2021/05/27 01:01:52;;;;;;;10.05;7.31;;;;;;;;;;365832;146;857281;-60
2021/05/27 01:02:54;;;;;;;9.02;7.41;;;;;;;;;;365248;145;857388;-60
2021/05/27 01:03:56;;;;;;;9.45;7.78;;;;;;;;;;365217;146;858728;-60
2021/05/27 01:04:57;;;;;;;8.31;7.22;;;;;;;;;;360875;147;866789;-60
2021/05/27 01:06:00;;;;;;;9.42;6.89;;;;;;;;;;354072;150;866646;-60
2021/05/27 01:07:02;;;;;;;12.34;7.67;;;;;;;;;;362810;146;858168;-60
2021/05/27 01:08:04;;;;;;;10.04;7.94;;;;;;;;;;365158;147;857789;-61
2021/05/27 01:09:06;;;;;;;9.04;7.73;;;;;;;;;;362947;146;865998;-60
2021/05/27 01:10:08;;;;;;;8.83;7.52;;;;;;;;;;365069;146;860346;-60
2021/05/27 01:11:10;;;;;;;9.45;7.68;;;;;;;;;;365707;147;859221;-60
2021/05/27 01:12:11;;;;;;;7.61;6.71;;;;;;;;;;365578;146;861409;-62
2021/05/27 01:13:13;;;;;;;10.16;7.13;;;;;;;;;;364812;147;857870;-62
2021/05/27 01:15:25;;;;;;;11.16;6.85;;;;;;;;;;364540;147;857722;-62
2021/05/27 01:16:30;;;;;;;8.62;7.67;;;;;;;;;;364919;146;858329;-61
2021/05/27 01:17:32;;;;;;;8.06;6.96;;;;;;;;;;364763;146;857614;-61
2021/05/27 01:18:33;;;;;;;10.34;7.28;;;;;;;;;;362721;148;858771;-62
2021/05/27 01:19:35;;;;;;;8.25;6.36;;;;;;;;;;362759;147;857421;-60
2021/05/27 01:20:37;;;;;;;9.57;6.56;;;;;;;;;;365147;145;857498;-60
2021/05/27 01:21:45;;;;;;;9.24;6.96;;;;;;;;;;363717;147;859095;-60
2021/05/27 01:22:47;;;;;;;9.14;6.84;;;;;;;;;;362771;146;857347;-62
2021/05/27 01:23:48;;;;;;;8.24;6.42;;;;;;;;;;364133;147;857629;-60
2021/05/27 01:24:50;;;;;;;10.69;6.26;;;;;;;;;;363214;147;857466;-62
2021/05/27 01:25:55;;;;;;;12.09;6.59;;;;;;;;;;363368;146;859319;-62
2021/05/27 01:26:57;;;;;;;9.31;6.31;;;;;;;;;;359601;147;857273;-62
2021/05/27 01:27:58;;;;;;;11.39;6.13;;;;;;;;;;363407;146;857251;-62
2021/05/27 01:29:00;;;;;;;8.91;6.06;;;;;;;;;;363508;147;860490;-62
2021/05/27 01:30:02;;;;;;;11.73;6.14;;;;;;;;;;359392;147;865380;-61
2021/05/27 01:31:04;;;;;;;9.29;6.19;;;;;;;;;;363357;146;865390;-61
2021/05/27 01:32:06;;;;;;;12.28;6.90;;;;;;;;;;365314;147;857412;-61
2021/05/27 01:33:09;;;;;;;7.51;6.79;;;;;;;;;;363734;147;859300;-62
2021/05/27 01:34:11;;;;;;;8.61;6.61;;;;;;;;;;364696;146;865128;-62
2021/05/27 01:35:14;;;;;;;9.23;6.14;;;;;;;;;;363536;147;858533;-59
2021/05/27 01:36:17;;;;;;;8.18;5.74;;;;;;;;;;362061;146;857344;-62
2021/05/27 01:37:18;;;;;;;12.25;6.46;;;;;;;;;;365977;146;859842;-62
2021/05/27 01:38:20;;;;;;;7.56;6.41;;;;;;;;;;365181;147;857537;-61
2021/05/27 01:39:22;;;;;;;9.22;6.41;;;;;;;;;;363766;146;857187;-61
2021/05/27 01:40:24;;;;;;;6.44;5.13;;;;;;;;;;360006;148;857279;-62
2021/05/27 01:41:26;;;;;;;10.47;5.83;;;;;;;;;;356048;150;857374;-62
2021/05/27 01:42:28;;;;;;;10.97;5.89;;;;;;;;;;365197;145;857404;-60
2021/05/27 01:43:29;;;;;;;8.11;6.58;;;;;;;;;;364093;146;857274;-60
2021/05/27 01:44:31;;;;;;;6.80;6.05;;;;;;;;;;363945;146;857517;-61
2021/05/27 01:45:33;;;;;;;7.53;6.23;;;;;;;;;;364264;147;858461;-59
2021/05/27 01:46:36;;;;;;;7.08;5.70;;;;;;;;;;360054;147;857515;-62
2021/05/27 01:47:38;;;;;;;7.61;5.88;;;;;;;;;;365200;146;863942;-60
2021/05/27 01:48:40;;;;;;;7.49;5.34;;;;;;;;;;365171;147;860989;-61
2021/05/27 01:49:41;;;;;;;8.56;5.56;;;;;;;;;;365244;146;857822;-60
2021/05/27 01:50:46;;;;;;;9.73;5.24;;;;;;;;;;365601;147;857295;-60
2021/05/27 01:51:49;;;;;;;8.09;4.93;;;;;;;;;;365217;147;858910;-60
2021/05/27 01:52:51;;;;;;;11.44;5.53;;;;;;;;;;365183;146;857590;-60
2021/05/27 01:53:52;;;;;;;7.45;5.26;;;;;;;;;;363669;147;865256;-60
2021/05/27 01:54:54;;;;;;;8.20;5.42;;;;;;;;;;362928;146;858763;-60
2021/05/27 01:55:56;;;;;;;11.18;6.64;;;;;;;;;;367285;146;859337;-60
2021/05/27 01:56:57;;;;;;;12.06;6.54;;;;;;;;;;366389;146;859348;-60
2021/05/27 01:57:59;;;;;;;7.61;6.05;;;;;;;;;;362956;146;865164;-60
2021/05/27 01:59:02;;;;;;;6.92;5.61;;;;;;;;;;361445;147;857345;-60
2021/05/27 02:00:04;;;;;;;7.27;5.99;;;;;;;;;;362728;147;864771;-59
2021/05/27 02:01:06;;;;;;;8.03;5.71;;;;;;;;;;362432;146;857248;-59
2021/05/27 02:02:07;;;;;;;10.19;5.84;;;;;;;;;;361336;146;859696;-59
2021/05/27 02:03:09;;;;;;;10.71;6.52;;;;;;;;;;366682;146;865096;-60
2021/05/27 02:04:11;;;;;;;12.03;6.63;;;;;;;;;;365004;146;858666;-59
2021/05/27 02:05:13;;;;;;;6.09;5.50;;;;;;;;;;359339;150;858718;-60
2021/05/27 02:06:15;;;;;;;7.36;5.33;;;;;;;;;;363168;146;858738;-59
2021/05/27 02:07:16;;;;;;;7.59;5.43;;;;;;;;;;363644;146;857256;-59
2021/05/27 02:08:21;;;;;;;7.41;6.09;;;;;;;;;;361304;147;866763;-59
2021/05/27 02:09:23;;;;;;;7.79;5.56;;;;;;;;;;365723;146;859447;-60
2021/05/27 02:10:26;;;;;;;7.62;5.92;;;;;;;;;;365357;147;864832;-60
2021/05/27 02:11:28;;;;;;;6.19;5.59;;;;;;;;;;365375;146;857177;-60
2021/05/27 02:12:29;;;;;;;7.51;6.23;;;;;;;;;;364045;147;864886;-60
2021/05/27 02:13:31;;;;;;;6.66;4.94;;;;;;;;;;364261;145;859622;-61
2021/05/27 02:14:33;;;;;;;12.08;5.04;;;;;;;;;;362189;146;860392;-60
2021/05/27 02:15:34;;;;;;;5.62;5.13;;;;;;;;;;364690;145;860222;-60
2021/05/27 02:16:37;;;;;;;11.13;5.61;;;;;;;;;;364760;147;859097;-59
2021/05/27 02:17:39;;;;;;;8.51;5.55;;;;;;;;;;364725;146;865925;-59
2021/05/27 02:18:41;;;;;;;7.37;5.12;;;;;;;;;;360487;147;865003;-60
2021/05/27 02:19:42;;;;;;;11.62;5.69;;;;;;;;;;362046;147;859422;-60
2021/05/27 02:20:46;;;;;;;8.11;5.66;;;;;;;;;;360277;148;858585;-60
2021/05/27 02:21:47;;;;;;;6.11;5.51;;;;;;;;;;364240;148;857266;-61
2021/05/27 02:22:49;;;;;;;6.70;4.44;;;;;;;;;;362325;147;860730;-61
2021/05/27 02:23:52;;;;;;;6.94;5.39;;;;;;;;;;362471;148;857998;-61
2021/05/27 02:24:53;;;;;;;6.86;5.16;;;;;;;;;;362304;147;857545;-60
2021/05/27 02:25:55;;;;;;;7.43;5.34;;;;;;;;;;358599;147;857271;-60
2021/05/27 02:26:57;;;;;;;6.84;4.80;;;;;;;;;;359895;148;859377;-61
2021/05/27 02:27:58;;;;;;;6.67;5.38;;;;;;;;;;363779;147;866396;-61
2021/05/27 02:29:00;;;;;;;7.34;5.27;;;;;;;;;;360834;146;858438;-59
2021/05/27 02:30:03;;;;;;;6.99;6.04;;;;;;;;;;362066;148;863684;-62
2021/05/27 02:31:05;;;;;;;7.81;6.55;;;;;;;;;;361935;147;857842;-60
2021/05/27 02:32:06;;;;;;;8.81;6.49;;;;;;;;;;357643;149;859391;-59
2021/05/27 02:33:08;;;;;;;6.93;6.23;;;;;;;;;;360011;147;857388;-59
2021/05/27 02:34:10;;;;;;;9.15;6.92;;;;;;;;;;361586;147;859239;-59
2021/05/27 02:35:12;;;;;;;9.25;6.45;;;;;;;;;;358778;148;859833;-61
2021/05/27 02:36:15;;;;;;;7.41;6.41;;;;;;;;;;361554;147;859030;-62
2021/05/27 02:37:17;;;;;;;7.86;6.94;;;;;;;;;;360071;149;857746;-62
2021/05/27 02:38:19;;;;;;;7.47;6.69;;;;;;;;;;357663;148;867157;-61
2021/05/27 02:39:20;;;;;;;9.31;7.31;;;;;;;;;;363286;147;865736;-58
2021/05/27 02:40:23;;;;;;;8.36;6.63;;;;;;;;;;364055;148;859365;-59
2021/05/27 02:41:24;;;;;;;8.96;6.76;;;;;;;;;;362396;148;866822;-58
2021/05/27 02:42:26;;;;;;;8.21;6.94;;;;;;;;;;362524;147;857913;-58
2021/05/27 02:43:28;;;;;;;10.31;6.39;;;;;;;;;;360953;146;857348;-61
2021/05/27 02:44:30;;;;;;;9.47;6.83;;;;;;;;;;363917;147;857290;-62
2021/05/27 02:45:32;;;;;;;9.96;7.03;;;;;;;;;;363703;147;857393;-61
2021/05/27 02:46:34;;;;;;;8.47;6.80;;;;;;;;;;362014;148;857583;-63
2021/05/27 02:47:36;;;;;;;7.96;6.85;;;;;;;;;;362391;147;857376;-62
2021/05/27 02:48:38;;;;;;;9.77;6.96;;;;;;;;;;364124;148;857456;-59
2021/05/27 02:49:40;;;;;;;7.03;6.32;;;;;;;;;;363753;148;857441;-58
2021/05/27 02:50:41;;;;;;;8.21;5.68;;;;;;;;;;360266;147;859136;-59
2021/05/27 02:51:43;;;;;;;7.91;6.36;;;;;;;;;;360612;148;865179;-61
2021/05/27 02:52:45;;;;;;;9.21;6.45;;;;;;;;;;362712;148;864939;-63
2021/05/27 02:53:46;;;;;;;9.48;6.61;;;;;;;;;;361688;147;857342;-60
2021/05/27 02:54:48;;;;;;;9.16;6.39;;;;;;;;;;359507;147;857238;-58
2021/05/27 02:55:50;;;;;;;10.67;6.28;;;;;;;;;;358830;147;857279;-59
2021/05/27 02:56:52;;;;;;;7.70;6.21;;;;;;;;;;360433;147;857264;-60
2021/05/27 02:57:53;;;;;;;9.64;6.42;;;;;;;;;;362833;148;857308;-61
2021/05/27 02:58:57;;;;;;;11.07;7.06;;;;;;;;;;361954;147;857340;-61
2021/05/27 02:59:58;;;;;;;11.39;6.69;;;;;;;;;;358259;148;857490;-61
2021/05/27 03:01:00;;;;;;;8.66;6.55;;;;;;;;;;360973;148;857604;-62
2021/05/27 03:02:02;;;;;;;9.18;7.08;;;;;;;;;;360571;147;865193;-59
2021/05/27 03:03:04;;;;;;;8.91;6.66;;;;;;;;;;359814;148;865112;-60
2021/05/27 03:04:05;;;;;;;7.33;6.53;;;;;;;;;;361671;148;857384;-60
2021/05/27 03:05:08;;;;;;;9.53;7.21;;;;;;;;;;362648;147;858689;-59
2021/05/27 03:06:10;;;;;;;8.50;7.02;;;;;;;;;;363220;146;858736;-59
2021/05/27 03:07:11;;;;;;;6.45;5.81;;;;;;;;;;360101;147;857348;-60
2021/05/27 03:08:13;;;;;;;9.20;6.96;;;;;;;;;;362418;147;857291;-59
2021/05/27 03:09:14;;;;;;;10.81;6.33;;;;;;;;;;362944;148;857373;-61
2021/05/27 03:10:17;;;;;;;10.03;6.67;;;;;;;;;;362404;147;857343;-59
2021/05/27 03:11:19;;;;;;;9.63;6.69;;;;;;;;;;362755;148;857461;-58
2021/05/27 03:12:21;;;;;;;8.05;5.94;;;;;;;;;;363904;148;857339;-60
2021/05/27 03:13:22;;;;;;;8.51;5.61;;;;;;;;;;361155;147;866592;-60
2021/05/27 03:14:24;;;;;;;7.84;4.81;;;;;;;;;;361359;148;865960;-59
2021/05/27 03:15:26;;;;;;;6.65;4.94;;;;;;;;;;364090;148;857375;-61
2021/05/27 03:16:29;;;;;;;5.72;4.61;;;;;;;;;;361880;147;858711;-61
2021/05/27 03:17:30;;;;;;;6.99;4.89;;;;;;;;;;362636;147;861155;-60
2021/05/27 03:18:32;;;;;;;8.47;4.55;;;;;;;;;;364037;146;864985;-62
2021/05/27 03:19:34;;;;;;;8.37;4.71;;;;;;;;;;365114;146;857483;-62
2021/05/27 03:20:37;;;;;;;7.06;4.22;;;;;;;;;;364309;145;857432;-62
2021/05/27 03:21:38;;;;;;;5.69;4.56;;;;;;;;;;356196;149;859704;-61
2021/05/27 03:22:40;;;;;;;6.69;4.92;;;;;;;;;;365807;146;859006;-61
2021/05/27 03:23:45;;;;;;;6.63;5.21;;;;;;;;;;358126;149;864812;-59
2021/05/27 03:24:46;;;;;;;6.21;5.14;;;;;;;;;;364523;146;864923;-60
2021/05/27 03:25:48;;;;;;;8.82;4.86;;;;;;;;;;363877;147;865107;-59
2021/05/27 03:26:51;;;;;;;6.97;5.39;;;;;;;;;;362683;146;857354;-58
2021/05/27 03:27:53;;;;;;;6.04;5.21;;;;;;;;;;363418;146;864759;-59
2021/05/27 03:28:55;;;;;;;8.04;5.27;;;;;;;;;;361373;147;859593;-59
2021/05/27 03:29:56;;;;;;;6.76;5.56;;;;;;;;;;364699;146;864956;-59
2021/05/27 03:30:58;;;;;;;5.77;4.93;;;;;;;;;;364087;146;857270;-57
2021/05/27 03:31:59;;;;;;;6.98;6.17;;;;;;;;;;364137;147;864879;-59
2021/05/27 03:33:01;;;;;;;10.25;6.70;;;;;;;;;;363987;146;857403;-59
2021/05/27 03:34:03;;;;;;;9.09;6.96;;;;;;;;;;364622;147;858986;-59
2021/05/27 03:35:05;;;;;;;9.96;6.90;;;;;;;;;;364104;147;858014;-59
2021/05/27 03:36:07;;;;;;;10.43;6.91;;;;;;;;;;364636;146;859552;-58
2021/05/27 03:37:09;;;;;;;8.81;6.78;;;;;;;;;;363058;147;857299;-58
2021/05/27 03:38:10;;;;;;;11.07;7.53;;;;;;;;;;356278;150;858271;-58
2021/05/27 03:39:12;;;;;;;9.56;7.26;;;;;;;;;;364995;146;857217;-58
2021/05/27 03:40:15;;;;;;;10.22;6.79;;;;;;;;;;365101;147;857255;-59
2021/05/27 03:41:16;;;;;;;8.27;6.88;;;;;;;;;;365245;146;857354;-59
2021/05/27 03:42:18;;;;;;;7.64;6.62;;;;;;;;;;363092;147;865154;-61
2021/05/27 03:43:20;;;;;;;9.11;6.42;;;;;;;;;;359293;150;857241;-67
2021/05/27 03:44:21;;;;;;;8.23;6.87;;;;;;;;;;362542;146;857198;-61
2021/05/27 03:45:24;;;;;;;8.21;7.02;;;;;;;;;;365127;147;857219;-60
2021/05/27 03:46:26;;;;;;;9.22;7.16;;;;;;;;;;365643;147;866965;-60
2021/05/27 03:47:28;;;;;;;9.08;7.11;;;;;;;;;;364002;146;865392;-61
2021/05/27 03:48:30;;;;;;;9.76;7.97;;;;;;;;;;365448;147;866778;-60
2021/05/27 03:49:31;;;;;;;12.09;8.13;;;;;;;;;;365974;147;859624;-59
2021/05/27 03:50:33;;;;;;;9.74;7.84;;;;;;;;;;364065;146;865236;-58
2021/05/27 03:51:35;;;;;;;11.59;7.85;;;;;;;;;;362905;147;865062;-59
2021/05/27 03:52:37;;;;;;;10.40;8.17;;;;;;;;;;362988;146;859957;-62
2021/05/27 03:53:39;;;;;;;11.77;8.32;;;;;;;;;;364763;147;856639;-61
2021/05/27 03:54:40;;;;;;;11.30;7.99;;;;;;;;;;362981;146;858356;-61
2021/05/27 03:55:42;;;;;;;10.19;7.95;;;;;;;;;;364332;146;865514;-62
2021/05/27 03:56:45;;;;;;;10.54;7.93;;;;;;;;;;364863;147;857857;-62
2021/05/27 03:57:47;;;;;;;10.52;8.27;;;;;;;;;;365382;147;857372;-61
2021/05/27 04:01:30;;;;;;;10.76;9.03;;;;;;;;;;364052;146;857814;-59
2021/05/27 04:02:33;;;;;;;10.36;9.04;;;;;;;;;;364749;147;857947;-60
2021/05/27 04:07:35;;;;;;;;;;;;;;;;;;362058;148;856785;-60
2021/05/27 04:08:37;;;;;;;13.49;9.34;;;;;;;;;;362529;147;857894;-58
2021/05/27 04:09:38;;;;;;;10.19;8.46;;;;;;;;;;356859;149;856543;-60
2021/05/27 04:10:40;;;;;;;13.15;8.88;;;;;;;;;;365083;147;857431;-60
2021/05/27 04:11:42;;;;;;;12.44;9.10;;;;;;;;;;362302;147;857267;-58
2021/05/27 04:12:47;;;;;;;10.94;9.01;;;;;;;;;;363358;146;857388;-59
2021/05/27 04:13:48;;;;;;;13.23;9.61;;;;;;;;;;365274;147;859102;-59
2021/05/27 04:16:10;;;;;;;21.32;9.23;;;;;;;;;;362859;146;866018;-60
2021/05/27 04:17:12;;;;;;;12.45;9.63;;;;;;;;;;361965;147;858319;-65
2021/05/27 04:18:15;;;;;;;15.96;9.33;;;;;;;;;;364598;146;857447;-61
2021/05/27 04:19:16;;;;;;;10.67;9.31;;;;;;;;;;365595;147;857525;-61
2021/05/27 04:20:18;;;;;;;13.58;9.74;;;;;;;;;;364260;147;865021;-60
2021/05/27 04:21:20;;;;;;;11.59;9.75;;;;;;;;;;363591;146;857307;-61
2021/05/27 04:22:21;;;;;;;14.30;9.47;;;;;;;;;;362746;146;857308;-60
2021/05/27 04:23:37;;;;;;;13.25;9.99;;;;;;;;;;365146;145;858234;-60
2021/05/27 04:24:41;;;;;;;12.58;9.32;;;;;;;;;;362380;146;857333;-62
2021/05/27 04:25:42;;;;;;;12.75;9.89;;;;;;;;;;362321;147;857963;-61
2021/05/27 04:26:45;;;;;;;16.87;9.93;;;;;;;;;;363023;146;857269;-60
2021/05/27 04:27:47;;;;;;;13.44;10.99;;;;;;;;;;365590;147;857756;-62
2021/05/27 04:28:48;;;;;;;13.14;9.79;;;;;;;;;;364620;147;859704;-62
2021/05/27 04:29:53;;;;;;;25.26;11.05;;;;;;;;;;362554;146;866047;-61
2021/05/27 04:31:17;;;;;;;13.42;10.07;;;;;;;;;;365583;147;857696;-59
2021/05/27 04:31:59;;;;;;;15.53;11.08;;;;;;;;;;357179;147;857233;-61
2021/05/27 04:33:05;;;;;;;16.04;10.84;;;;;;;;;;363444;146;857376;-63
2021/05/27 04:34:06;;;;;;;14.82;11.48;;;;;;;;;;362866;147;865012;-61
2021/05/27 04:35:08;;;;;;;15.56;11.36;;;;;;;;;;364875;146;858661;-60
2021/05/27 04:36:11;;;;;;;18.75;11.21;;;;;;;;;;362525;147;857441;-62
2021/05/27 04:37:12;;;;;;;17.27;11.13;;;;;;;;;;365748;147;857296;-61
2021/05/27 04:38:14;;;;;;;15.35;10.86;;;;;;;;;;362292;146;858891;-61
2021/05/27 04:39:17;;;;;;;14.38;11.01;;;;;;;;;;363445;146;858828;-62
2021/05/27 04:40:20;;;;;;;14.86;11.39;;;;;;;;;;361666;146;865053;-62
2021/05/27 04:41:22;;;;;;;16.73;11.85;;;;;;;;;;365141;146;858991;-65
2021/05/27 04:42:23;;;;;;;17.81;11.99;;;;;;;;;;364334;144;858868;-64
2021/05/27 04:43:25;;;;;;;14.46;11.66;;;;;;;;;;360663;147;860237;-65
2021/05/27 04:44:26;;;;;;;14.40;11.26;;;;;;;;;;364437;146;857280;-65
2021/05/27 04:45:28;;;;;;;18.09;11.66;;;;;;;;;;361680;147;857689;-62
2021/05/27 04:46:30;;;;;;;15.87;11.35;;;;;;;;;;362870;146;857320;-59
2021/05/27 04:47:32;;;;;;;16.21;11.21;;;;;;;;;;362528;145;857442;-61
2021/05/27 04:48:33;;;;;;;17.46;11.71;;;;;;;;;;361200;147;857451;-60
2021/05/27 04:49:35;;;;;;;17.84;11.97;;;;;;;;;;362528;146;857343;-62
2021/05/27 04:50:37;;;;;;;16.99;12.30;;;;;;;;;;363110;146;857482;-59
2021/05/27 04:51:39;;;;;;;18.67;12.84;;;;;;;;;;362501;147;857476;-59
2021/05/27 04:52:40;;;;;;;16.98;12.40;;;;;;;;;;363151;146;857364;-59
2021/05/27 04:53:42;;;;;;;16.08;12.07;;;;;;;;;;365121;145;858932;-58
2021/05/27 04:54:44;;;;;;;17.37;12.77;;;;;;;;;;364359;146;859644;-60
2021/05/27 04:55:46;;;;;;;16.75;13.16;;;;;;;;;;364352;145;860503;-60
2021/05/27 04:56:47;;;;;;;20.65;13.47;;;;;;;;;;363822;145;858608;-60
2021/05/27 04:57:49;;;;;;;25.41;13.09;;;;;;;;;;362862;146;858586;-59
2021/05/27 04:58:50;;;;;;;20.19;12.81;;;;;;;;;;363207;146;857183;-60
2021/05/27 04:59:52;;;;;;;17.81;12.56;;;;;;;;;;363711;147;857157;-60
2021/05/27 05:00:54;;;;;;;17.37;12.12;;;;;;;;;;363436;145;857329;-58
2021/05/27 05:01:56;;;;;;;17.51;12.37;;;;;;;;;;362746;147;857297;-59
2021/05/27 05:02:58;;;;;;;21.08;13.39;;;;;;;;;;361627;147;858869;-60
2021/05/27 05:03:59;;;;;;;18.74;13.34;;;;;;;;;;361922;146;860229;-59
2021/05/27 05:05:01;;;;;;;19.24;14.04;;;;;;;;;;361079;147;865030;-59
2021/05/27 05:06:03;;;;;;;19.39;14.07;;;;;;;;;;363819;146;859176;-60
2021/05/27 05:07:05;;;;;;;17.68;14.36;;;;;;;;;;364508;146;857332;-60
2021/05/27 05:08:06;;;;;;;18.27;14.57;;;;;;;;;;363963;144;859574;-59
2021/05/27 05:09:08;;;;;;;20.13;15.14;;;;;;;;;;363834;146;857876;-60
2021/05/27 05:10:11;;;;;;;17.78;13.97;;;;;;;;;;365300;147;857230;-60
2021/05/27 05:11:13;;;;;;;24.11;15.16;;;;;;;;;;359255;147;860399;-60
2021/05/27 05:12:14;;;;;;;21.85;14.51;;;;;;;;;;361687;146;859856;-60
2021/05/27 05:13:16;;;;;;;19.64;14.86;;;;;;;;;;362587;146;857890;-60
2021/05/27 05:14:18;;;;;;;17.05;13.62;;;;;;;;;;362361;147;857550;-62
2021/05/27 05:15:21;;;;;;;22.90;14.43;;;;;;;;;;364883;146;857435;-62
2021/05/27 05:16:24;;;;;;;18.24;12.49;;;;;;;;;;363260;147;857213;-60
2021/05/27 05:33:48;;;;;;;14.92;9.75;;;;;;;19.62;61.87;99991.49;376428;142;889669;-60
2021/05/27 05:34:51;;;;;;;15.01;11.14;;;;;;;19.55;62.13;99990.06;366307;144;859810;-60
2021/05/27 05:35:53;;;;;;;13.56;10.96;;;;;;;19.53;62.29;99984.86;370321;144;858176;-60
2021/05/27 05:36:55;;;;;;;15.59;10.95;;;;;;;19.50;62.17;99987.63;366497;144;859026;-59
2021/05/27 05:37:57;;;;;;;15.35;11.04;;;;;;;19.46;62.33;99983.44;366677;144;859696;-59
2021/05/27 05:38:59;;;;;;;13.63;10.39;;;;;;;;;;366266;144;859084;-60
2021/05/27 05:40:00;;;;;;;13.49;10.26;;;;;;;;;;366535;144;857377;-61
2021/05/27 05:41:03;;;;;;;14.38;10.79;;;;;;;;;;366059;146;865945;-61
2021/05/27 05:42:05;;;;;;;16.04;10.04;;;;;;;;;;365969;144;858669;-61
2021/05/27 05:43:07;;;;;;;13.16;10.54;;;;;;;;;;367135;144;857436;-60
2021/05/27 05:44:08;;;;;;;12.21;9.99;;;;;;;;;;369485;144;865080;-60
2021/05/27 05:45:11;;;;;;;13.21;9.69;;;;;;;;;;368439;144;857363;-61
2021/05/27 05:46:13;;;;;;;18.42;10.21;;;;;;;;;;366112;144;865113;-60
2021/05/27 05:47:14;;;;;;;13.89;9.71;;;;;;;;;;366839;144;860843;-60
2021/05/27 05:48:16;;;;;;;12.54;9.28;;;;;;;;;;366721;144;857689;-62
2021/05/27 05:49:18;;;;;;;12.81;9.56;;;;;;;;;;366737;144;857222;-62
2021/05/27 05:51:41;;;;;;;13.43;9.64;;;;;;;;;;363462;144;859235;-61
2021/05/27 05:52:42;;;;;;;15.39;9.87;;;;;;;;;;361069;147;859106;-61
2021/05/27 05:53:44;;;;;;;15.86;9.75;;;;;;;;;;362888;146;861802;-61
2021/05/27 05:54:46;;;;;;;13.41;10.29;;;;;;;;;;362200;146;865012;-61
2021/05/27 05:55:48;;;;;;;12.99;11.01;;;;;;;;;;354915;150;857327;-62
2021/05/27 05:56:49;;;;;;;14.07;10.49;;;;;;;;;;354269;148;860053;-62
2021/05/27 05:57:51;;;;;;;12.78;9.70;;;;;;;;;;362891;147;858776;-62
2021/05/27 05:58:53;;;;;;;18.37;10.03;;;;;;;;;;360352;146;857364;-62
2021/05/27 05:59:54;;;;;;;14.91;9.86;;;;;;;;;;361652;148;857832;-62
2021/05/27 06:00:56;;;;;;;13.71;9.29;;;;;;;;;;363768;147;857302;-62
2021/05/27 06:01:58;;;;;;;11.27;7.79;;;;;;;;;;364312;146;865076;-62
2021/05/27 06:02:59;;;;;;;13.91;8.57;;;;;;;;;;364844;147;857367;-62
2021/05/27 06:04:01;;;;;;;11.14;8.49;;;;;;;;;;364276;146;857517;-63
2021/05/27 06:05:03;;;;;;;10.65;7.50;;;;;;;;;;362989;146;859129;-61
2021/05/27 06:06:07;;;;;;;10.79;8.38;;;;;;;;;;361123;147;857365;-63
2021/05/27 06:07:09;;;;;;;11.94;7.08;;;;;;;;;;362027;147;858719;-60
2021/05/27 06:08:10;;;;;;;11.81;7.25;;;;;;;;;;365908;147;857275;-61
2021/05/27 06:09:12;;;;;;;9.56;8.08;;;;;;;;;;361207;147;865740;-62
2021/05/27 06:10:14;;;;;;;12.11;7.55;;;;;;;;;;364076;145;865531;-62
2021/05/27 06:11:16;;;;;;;11.97;7.55;;;;;;;;;;365843;147;857772;-62
2021/05/27 06:12:17;;;;;;;9.46;7.17;;;;;;;;;;360682;147;857286;-60
2021/05/27 06:13:19;;;;;;;10.27;7.94;;;;;;;;;;364132;146;865567;-59
2021/05/27 06:14:20;;;;;;;10.09;7.91;;;;;;;;;;359750;147;857390;-62
2021/05/27 06:15:22;;;;;;;10.51;6.69;;;;;;;;;;364806;146;857828;-59
2021/05/27 06:16:25;;;;;;;12.06;7.56;;;;;;;;;;363894;146;859046;-60
2021/05/27 06:17:26;;;;;;;12.11;7.03;;;;;;;;;;365916;147;857351;-60
2021/05/27 06:18:28;;;;;;;11.06;7.50;;;;;;;;;;362342;147;857545;-59
2021/05/27 06:19:30;;;;;;;9.90;6.76;;;;;;;;;;362453;147;860523;-61
2021/05/27 06:20:32;;;;;;;6.98;4.92;;;;;;;;;;364325;147;858844;-63
2021/05/27 06:21:33;;;;;;;7.16;5.03;;;;;;;;;;362923;146;859735;-58
2021/05/27 06:22:35;;;;;;;8.32;4.79;;;;;;;;;;365495;147;857470;-63
2021/05/27 06:23:36;;;;;;;10.79;5.24;;;;;;;;;;360219;147;857529;-63
2021/05/27 06:24:38;;;;;;;6.74;4.74;;;;;;;;;;363730;146;857998;-60
2021/05/27 06:25:40;;;;;;;6.84;4.66;;;;;;;;;;363105;147;857863;-61
2021/05/27 06:26:41;;;;;;;13.29;6.49;;;;;;;;;;364264;147;857466;-61
2021/05/27 06:27:43;;;;;;;17.43;7.24;;;;;;;;;;365431;146;867270;-61
2021/05/27 06:28:44;;;;;;;9.06;7.13;;;;;;;;;;361437;147;860656;-61
2021/05/27 06:29:46;;;;;;;9.35;6.56;;;;;;;;;;361406;147;859786;-60